sensor_id;sensor_type;location;lat;lon;timestamp;pressure;altitude;pressure_sealevel;temperature
79089;BMP280;68489;50.286;9.452;2024-03-06T00:00:21;97249.19;;;5.93
79089;BMP280;68489;50.286;9.452;2024-03-06T00:02:46;97257.09;;;5.93
79089;BMP280;68489;50.286;9.452;2024-03-06T00:05:12;97257.50;;;5.92
79089;BMP280;68489;50.286;9.452;2024-03-06T00:07:37;97261.31;;;5.91
79089;BMP280;68489;50.286;9.452;2024-03-06T00:10:03;97260.56;;;5.90
79089;BMP280;68489;50.286;9.452;2024-03-06T00:12:30;97268.06;;;5.92
79089;BMP280;68489;50.286;9.452;2024-03-06T00:14:55;97268.06;;;5.92
79089;BMP280;68489;50.286;9.452;2024-03-06T00:17:20;97268.06;;;5.92
79089;BMP280;68489;50.286;9.452;2024-03-06T00:19:46;97270.28;;;5.93
79089;BMP280;68489;50.286;9.452;2024-03-06T00:22:11;97269.13;;;5.94
79089;BMP280;68489;50.286;9.452;2024-03-06T00:24:37;97272.19;;;5.93
79089;BMP280;68489;50.286;9.452;2024-03-06T00:27:02;97274.03;;;5.96
79089;BMP280;68489;50.286;9.452;2024-03-06T00:29:30;97274.78;;;5.96
79089;BMP280;68489;50.286;9.452;2024-03-06T00:31:55;97274.78;;;5.96
79089;BMP280;68489;50.286;9.452;2024-03-06T00:34:20;97279.31;;;5.96
79089;BMP280;68489;50.286;9.452;2024-03-06T00:36:46;97278.16;;;5.97
79089;BMP280;68489;50.286;9.452;2024-03-06T00:39:12;97280.06;;;5.96
79089;BMP280;68489;50.286;9.452;2024-03-06T00:41:39;97286.44;;;5.99
79089;BMP280;68489;50.286;9.452;2024-03-06T00:44:05;97292.44;;;5.99
79089;BMP280;68489;50.286;9.452;2024-03-06T00:46:31;97292.84;;;5.98
79089;BMP280;68489;50.286;9.452;2024-03-06T00:48:56;97290.59;;;5.96
79089;BMP280;68489;50.286;9.452;2024-03-06T00:51:21;97289.88;;;5.96
79089;BMP280;68489;50.286;9.452;2024-03-06T00:53:47;97292.88;;;5.94
79089;BMP280;68489;50.286;9.452;2024-03-06T00:56:12;97292.16;;;5.94
79089;BMP280;68489;50.286;9.452;2024-03-06T00:58:37;97297.44;;;5.94
79089;BMP280;68489;50.286;9.452;2024-03-06T01:01:03;97291.41;;;5.93
79089;BMP280;68489;50.286;9.452;2024-03-06T01:03:28;97295.94;;;5.93
79089;BMP280;68489;50.286;9.452;2024-03-06T01:05:54;97294.88;;;5.90
79089;BMP280;68489;50.286;9.452;2024-03-06T01:08:21;97291.81;;;5.92
79089;BMP280;68489;50.286;9.452;2024-03-06T01:10:47;97284.31;;;5.90
79089;BMP280;68489;50.286;9.452;2024-03-06T01:13:12;97286.94;;;5.90
79089;BMP280;68489;50.286;9.452;2024-03-06T01:15:38;97286.59;;;5.88
79089;BMP280;68489;50.286;9.452;2024-03-06T01:18:03;97294.16;;;5.86
79089;BMP280;68489;50.286;9.452;2024-03-06T01:20:29;97293.34;;;5.89
79089;BMP280;68489;50.286;9.452;2024-03-06T01:22:54;97299.38;;;5.90
79089;BMP280;68489;50.286;9.452;2024-03-06T01:25:20;97295.25;;;5.89
79089;BMP280;68489;50.286;9.452;2024-03-06T01:27:47;97301.69;;;5.88
79089;BMP280;68489;50.286;9.452;2024-03-06T01:30:13;97299.78;;;5.88
79089;BMP280;68489;50.286;9.452;2024-03-06T01:32:38;97296.00;;;5.89
79089;BMP280;68489;50.286;9.452;2024-03-06T01:35:04;97300.19;;;5.87
79089;BMP280;68489;50.286;9.452;2024-03-06T01:37:30;97297.53;;;5.87
79089;BMP280;68489;50.286;9.452;2024-03-06T01:39:56;97304.72;;;5.86
79089;BMP280;68489;50.286;9.452;2024-03-06T01:42:21;97302.81;;;5.87
79089;BMP280;68489;50.286;9.452;2024-03-06T01:44:46;97301.34;;;5.86
79089;BMP280;68489;50.286;9.452;2024-03-06T01:47:11;97307.00;;;5.84
79089;BMP280;68489;50.286;9.452;2024-03-06T01:49:37;97316.06;;;5.83
79089;BMP280;68489;50.286;9.452;2024-03-06T01:52:03;97310.44;;;5.81
79089;BMP280;68489;50.286;9.452;2024-03-06T01:54:29;97313.84;;;5.82
79089;BMP280;68489;50.286;9.452;2024-03-06T01:56:57;97314.97;;;5.81
79089;BMP280;68489;50.286;9.452;2024-03-06T01:59:23;97307.13;;;5.77
79089;BMP280;68489;50.286;9.452;2024-03-06T02:01:53;97304.81;;;5.79
79089;BMP280;68489;50.286;9.452;2024-03-06T02:04:19;97304.50;;;5.77
79089;BMP280;68489;50.286;9.452;2024-03-06T02:06:45;97315.78;;;5.78
79089;BMP280;68489;50.286;9.452;2024-03-06T02:09:12;97307.88;;;5.78
79089;BMP280;68489;50.286;9.452;2024-03-06T02:11:38;97310.50;;;5.78
79089;BMP280;68489;50.286;9.452;2024-03-06T02:14:04;97313.56;;;5.76
79089;BMP280;68489;50.286;9.452;2024-03-06T02:16:31;97309.03;;;5.77
79089;BMP280;68489;50.286;9.452;2024-03-06T02:18:57;97312.78;;;5.75
79089;BMP280;68489;50.286;9.452;2024-03-06T02:21:24;97313.56;;;5.76
79089;BMP280;68489;50.286;9.452;2024-03-06T02:23:50;97308.66;;;5.74
79089;BMP280;68489;50.286;9.452;2024-03-06T02:26:19;97313.94;;;5.74
79089;BMP280;68489;50.286;9.452;2024-03-06T02:28:48;97310.56;;;5.74
79089;BMP280;68489;50.286;9.452;2024-03-06T02:31:18;97312.09;;;5.71
79089;BMP280;68489;50.286;9.452;2024-03-06T02:33:44;97308.72;;;5.71
79089;BMP280;68489;50.286;9.452;2024-03-06T02:36:12;97308.72;;;5.71
79089;BMP280;68489;50.286;9.452;2024-03-06T02:38:38;97307.94;;;5.70
79089;BMP280;68489;50.286;9.452;2024-03-06T02:41:03;97302.72;;;5.67
79089;BMP280;68489;50.286;9.452;2024-03-06T02:43:29;97301.25;;;5.66
79089;BMP280;68489;50.286;9.452;2024-03-06T02:45:54;97309.94;;;5.63
79089;BMP280;68489;50.286;9.452;2024-03-06T02:48:20;97317.13;;;5.62
79089;BMP280;68489;50.286;9.452;2024-03-06T02:50:45;97317.53;;;5.61
79089;BMP280;68489;50.286;9.452;2024-03-06T02:53:10;97312.63;;;5.59
79089;BMP280;68489;50.286;9.452;2024-03-06T02:55:36;97320.22;;;5.57
79089;BMP280;68489;50.286;9.452;2024-03-06T02:58:02;97318.69;;;5.56
79089;BMP280;68489;50.286;9.452;2024-03-06T03:00:28;97321.75;;;5.55
79089;BMP280;68489;50.286;9.452;2024-03-06T03:02:53;97312.72;;;5.52
79089;BMP280;68489;50.286;9.452;2024-03-06T03:05:18;97316.16;;;5.49
79089;BMP280;68489;50.286;9.452;2024-03-06T03:07:44;97313.53;;;5.49
79089;BMP280;68489;50.286;9.452;2024-03-06T03:10:09;97311.72;;;5.42
79089;BMP280;68489;50.286;9.452;2024-03-06T03:12:35;97317.44;;;5.37
79089;BMP280;68489;50.286;9.452;2024-03-06T03:15:03;97316.00;;;5.33
79089;BMP280;68489;50.286;9.452;2024-03-06T03:17:29;97315.72;;;5.27
79089;BMP280;68489;50.286;9.452;2024-03-06T03:19:54;97314.22;;;5.22
79089;BMP280;68489;50.286;9.452;2024-03-06T03:22:19;97318.81;;;5.18
79089;BMP280;68489;50.286;9.452;2024-03-06T03:24:45;97322.97;;;5.16
79089;BMP280;68489;50.286;9.452;2024-03-06T03:27:10;97316.66;;;5.10
79089;BMP280;68489;50.286;9.452;2024-03-06T03:29:36;97321.97;;;5.06
79089;BMP280;68489;50.286;9.452;2024-03-06T03:32:01;97319.41;;;4.99
79089;BMP280;68489;50.286;9.452;2024-03-06T03:34:27;97320.97;;;4.93
79089;BMP280;68489;50.286;9.452;2024-03-06T03:36:52;97324.44;;;4.86
79089;BMP280;68489;50.286;9.452;2024-03-06T03:39:17;97319.94;;;4.83
79089;BMP280;68489;50.286;9.452;2024-03-06T03:41:46;97317.34;;;4.79
79089;BMP280;68489;50.286;9.452;2024-03-06T03:44:15;97327.19;;;4.75
79089;BMP280;68489;50.286;9.452;2024-03-06T03:46:41;97329.06;;;4.75
79089;BMP280;68489;50.286;9.452;2024-03-06T03:49:07;97331.34;;;4.73
79089;BMP280;68489;50.286;9.452;2024-03-06T03:51:33;97340.38;;;4.72
79089;BMP280;68489;50.286;9.452;2024-03-06T03:53:59;97339.25;;;4.73
79089;BMP280;68489;50.286;9.452;2024-03-06T03:56:24;97338.13;;;4.74
79089;BMP280;68489;50.286;9.452;2024-03-06T03:58:49;97338.47;;;4.76
79089;BMP280;68489;50.286;9.452;2024-03-06T04:01:15;97349.34;;;4.78
79089;BMP280;68489;50.286;9.452;2024-03-06T04:03:40;97348.97;;;4.79
79089;BMP280;68489;50.286;9.452;2024-03-06T04:06:08;97344.03;;;4.81
79089;BMP280;68489;50.286;9.452;2024-03-06T04:08:33;97350.41;;;4.84
79089;BMP280;68489;50.286;9.452;2024-03-06T04:10:59;97347.00;;;4.87
79089;BMP280;68489;50.286;9.452;2024-03-06T04:13:25;97349.25;;;4.89
79089;BMP280;68489;50.286;9.452;2024-03-06T04:15:51;97343.19;;;4.92
79089;BMP280;68489;50.286;9.452;2024-03-06T04:18:16;97347.69;;;4.95
79089;BMP280;68489;50.286;9.452;2024-03-06T04:20:42;97352.16;;;4.98
79089;BMP280;68489;50.286;9.452;2024-03-06T04:23:07;97354.00;;;5.01
79089;BMP280;68489;50.286;9.452;2024-03-06T04:25:32;97354.38;;;5.03
79089;BMP280;68489;50.286;9.452;2024-03-06T04:27:58;97357.31;;;5.09
79089;BMP280;68489;50.286;9.452;2024-03-06T04:30:23;97362.16;;;5.14
79089;BMP280;68489;50.286;9.452;2024-03-06T04:32:50;97363.22;;;5.20
79089;BMP280;68489;50.286;9.452;2024-03-06T04:35:15;97364.69;;;5.24
79089;BMP280;68489;50.286;9.452;2024-03-06T04:37:40;97365.78;;;5.27
79089;BMP280;68489;50.286;9.452;2024-03-06T04:40:07;97367.97;;;5.32
79089;BMP280;68489;50.286;9.452;2024-03-06T04:42:34;97368.28;;;5.38
79089;BMP280;68489;50.286;9.452;2024-03-06T04:45:11;97371.28;;;5.40
79089;BMP280;68489;50.286;9.452;2024-03-06T04:47:37;97372.03;;;5.40
79089;BMP280;68489;50.286;9.452;2024-03-06T04:50:03;97373.47;;;5.45
79089;BMP280;68489;50.286;9.452;2024-03-06T04:52:28;97381.06;;;5.43
79089;BMP280;68489;50.286;9.452;2024-03-06T04:54:54;97378.41;;;5.43
79089;BMP280;68489;50.286;9.452;2024-03-06T04:57:19;97382.91;;;5.46
79089;BMP280;68489;50.286;9.452;2024-03-06T04:59:44;97385.91;;;5.44
79089;BMP280;68489;50.286;9.452;2024-03-06T05:02:10;97391.59;;;5.43
79089;BMP280;68489;50.286;9.452;2024-03-06T05:04:35;97387.06;;;5.43
79089;BMP280;68489;50.286;9.452;2024-03-06T05:07:01;97389.72;;;5.43
79089;BMP280;68489;50.286;9.452;2024-03-06T05:09:26;97384.47;;;5.40
79089;BMP280;68489;50.286;9.452;2024-03-06T05:11:52;97387.09;;;5.40
79089;BMP280;68489;50.286;9.452;2024-03-06T05:14:17;97384.88;;;5.38
79089;BMP280;68489;50.286;9.452;2024-03-06T05:16:42;97404.44;;;5.41
79089;BMP280;68489;50.286;9.452;2024-03-06T05:19:09;97403.63;;;5.44
79089;BMP280;68489;50.286;9.452;2024-03-06T05:21:36;97403.22;;;5.45
79089;BMP280;68489;50.286;9.452;2024-03-06T05:24:01;97406.94;;;5.48
79089;BMP280;68489;50.286;9.452;2024-03-06T05:26:26;97413.31;;;5.50
79089;BMP280;68489;50.286;9.452;2024-03-06T05:28:52;97417.06;;;5.53
79089;BMP280;68489;50.286;9.452;2024-03-06T05:31:18;97422.31;;;5.57
79089;BMP280;68489;50.286;9.452;2024-03-06T05:33:44;97426.47;;;5.58
79089;BMP280;68489;50.286;9.452;2024-03-06T05:36:10;97423.03;;;5.61
79089;BMP280;68489;50.286;9.452;2024-03-06T05:38:36;97429.78;;;5.62
79089;BMP280;68489;50.286;9.452;2024-03-06T05:41:01;97433.50;;;5.64
79089;BMP280;68489;50.286;9.452;2024-03-06T05:43:27;97442.53;;;5.67
79089;BMP280;68489;50.286;9.452;2024-03-06T05:45:53;97441.00;;;5.69
79089;BMP280;68489;50.286;9.452;2024-03-06T05:48:18;97457.19;;;5.71
79089;BMP280;68489;50.286;9.452;2024-03-06T05:50:43;97460.56;;;5.72
79089;BMP280;68489;50.286;9.452;2024-03-06T05:53:09;97462.84;;;5.73
79089;BMP280;68489;50.286;9.452;2024-03-06T05:55:36;97463.16;;;5.75
79089;BMP280;68489;50.286;9.452;2024-03-06T05:58:02;97468.06;;;5.77
79089;BMP280;68489;50.286;9.452;2024-03-06T06:00:27;97471.44;;;5.78
79089;BMP280;68489;50.286;9.452;2024-03-06T06:02:52;97465.75;;;5.79
79089;BMP280;68489;50.286;9.452;2024-03-06T06:05:18;97465.75;;;5.79
79089;BMP280;68489;50.286;9.452;2024-03-06T06:07:48;97467.25;;;5.80
79089;BMP280;68489;50.286;9.452;2024-03-06T06:10:13;97469.97;;;5.77
79089;BMP280;68489;50.286;9.452;2024-03-06T06:12:39;97469.53;;;5.78
79089;BMP280;68489;50.286;9.452;2024-03-06T06:15:05;97481.19;;;5.81
79089;BMP280;68489;50.286;9.452;2024-03-06T06:17:32;97476.66;;;5.81
79089;BMP280;68489;50.286;9.452;2024-03-06T06:19:57;97476.66;;;5.81
79089;BMP280;68489;50.286;9.452;2024-03-06T06:22:22;97481.59;;;5.79
79089;BMP280;68489;50.286;9.452;2024-03-06T06:24:48;97481.59;;;5.79
79089;BMP280;68489;50.286;9.452;2024-03-06T06:27:13;97490.63;;;5.78
79089;BMP280;68489;50.286;9.452;2024-03-06T06:29:39;97494.44;;;5.77
79089;BMP280;68489;50.286;9.452;2024-03-06T06:32:04;97493.63;;;5.80
79089;BMP280;68489;50.286;9.452;2024-03-06T06:34:29;97498.13;;;5.83
79089;BMP280;68489;50.286;9.452;2024-03-06T06:36:56;97495.84;;;5.85
79089;BMP280;68489;50.286;9.452;2024-03-06T06:39:22;97493.22;;;5.85
79089;BMP280;68489;50.286;9.452;2024-03-06T06:41:47;97502.63;;;5.86
79089;BMP280;68489;50.286;9.452;2024-03-06T06:44:12;97495.75;;;5.92
79089;BMP280;68489;50.286;9.452;2024-03-06T06:46:39;97505.50;;;5.99
79089;BMP280;68489;50.286;9.452;2024-03-06T06:49:04;97509.56;;;6.04
79089;BMP280;68489;50.286;9.452;2024-03-06T06:51:29;97509.13;;;6.09
79089;BMP280;68489;50.286;9.452;2024-03-06T06:53:55;97520.00;;;6.14
79089;BMP280;68489;50.286;9.452;2024-03-06T06:56:20;97517.75;;;6.13
79089;BMP280;68489;50.286;9.452;2024-03-06T06:58:49;97518.13;;;6.11
79089;BMP280;68489;50.286;9.452;2024-03-06T07:01:14;97518.56;;;6.10
79089;BMP280;68489;50.286;9.452;2024-03-06T07:03:42;97521.53;;;6.12
79089;BMP280;68489;50.286;9.452;2024-03-06T07:06:07;97520.34;;;6.16
79089;BMP280;68489;50.286;9.452;2024-03-06T07:08:32;97521.81;;;6.21
79089;BMP280;68489;50.286;9.452;2024-03-06T07:10:58;97524.38;;;6.24
79089;BMP280;68489;50.286;9.452;2024-03-06T07:13:23;97529.28;;;6.26
79089;BMP280;68489;50.286;9.452;2024-03-06T07:15:49;97521.69;;;6.32
79089;BMP280;68489;50.286;9.452;2024-03-06T07:18:14;97524.19;;;6.39
79089;BMP280;68489;50.286;9.452;2024-03-06T07:20:40;97530.22;;;6.39
79089;BMP280;68489;50.286;9.452;2024-03-06T07:23:06;97530.22;;;6.39
79089;BMP280;68489;50.286;9.452;2024-03-06T07:25:32;97534.31;;;6.44
79089;BMP280;68489;50.286;9.452;2024-03-06T07:27:58;97526.75;;;6.46
79089;BMP280;68489;50.286;9.452;2024-03-06T07:30:23;97531.19;;;6.53
79089;BMP280;68489;50.286;9.452;2024-03-06T07:32:48;97536.06;;;6.54
79089;BMP280;68489;50.286;9.452;2024-03-06T07:35:14;97539.03;;;6.60
79089;BMP280;68489;50.286;9.452;2024-03-06T07:37:39;97539.25;;;6.69
79089;BMP280;68489;50.286;9.452;2024-03-06T07:40:06;97547.03;;;6.80
79089;BMP280;68489;50.286;9.452;2024-03-06T07:42:32;97550.75;;;6.82
79089;BMP280;68489;50.286;9.452;2024-03-06T07:44:58;97555.59;;;6.87
79089;BMP280;68489;50.286;9.452;2024-03-06T07:47:24;97548.16;;;7.02
79089;BMP280;68489;50.286;9.452;2024-03-06T07:49:49;97548.16;;;7.02
79089;BMP280;68489;50.286;9.452;2024-03-06T07:52:15;97551.41;;;7.13
79089;BMP280;68489;50.286;9.452;2024-03-06T07:54:41;97557.28;;;7.25
79089;BMP280;68489;50.286;9.452;2024-03-06T07:57:06;97551.84;;;7.32
79089;BMP280;68489;50.286;9.452;2024-03-06T07:59:32;97557.84;;;7.36
79089;BMP280;68489;50.286;9.452;2024-03-06T08:01:57;97559.59;;;7.42
79089;BMP280;68489;50.286;9.452;2024-03-06T08:04:22;97562.59;;;7.44
79089;BMP280;68489;50.286;9.452;2024-03-06T08:06:48;97571.38;;;7.38
79089;BMP280;68489;50.286;9.452;2024-03-06T08:09:14;97570.50;;;7.25
79089;BMP280;68489;50.286;9.452;2024-03-06T08:11:41;97582.28;;;7.20
79089;BMP280;68489;50.286;9.452;2024-03-06T08:14:07;97581.19;;;7.17
79089;BMP280;68489;50.286;9.452;2024-03-06T08:16:32;97585.31;;;7.18
79089;BMP280;68489;50.286;9.452;2024-03-06T08:18:59;97590.25;;;7.16
79089;BMP280;68489;50.286;9.452;2024-03-06T08:21:25;97589.59;;;7.12
79089;BMP280;68489;50.286;9.452;2024-03-06T08:23:50;97595.63;;;7.13
79089;BMP280;68489;50.286;9.452;2024-03-06T08:26:16;97588.03;;;7.15
79089;BMP280;68489;50.286;9.452;2024-03-06T08:28:41;97585.28;;;6.99
79089;BMP280;68489;50.286;9.452;2024-03-06T08:31:07;97596.06;;;7.08
79089;BMP280;68489;50.286;9.452;2024-03-06T08:33:33;97596.44;;;7.10
79089;BMP280;68489;50.286;9.452;2024-03-06T08:35:59;97604.31;;;7.13
79089;BMP280;68489;50.286;9.452;2024-03-06T08:38:24;97602.34;;;7.17
79089;BMP280;68489;50.286;9.452;2024-03-06T08:40:50;97597.06;;;7.17
79089;BMP280;68489;50.286;9.452;2024-03-06T08:43:16;97605.63;;;7.25
79089;BMP280;68489;50.286;9.452;2024-03-06T08:45:42;97608.25;;;7.25
79089;BMP280;68489;50.286;9.452;2024-03-06T08:48:07;97605.56;;;7.29
79089;BMP280;68489;50.286;9.452;2024-03-06T08:50:33;97612.41;;;7.26
79089;BMP280;68489;50.286;9.452;2024-03-06T08:52:59;97614.53;;;7.35
79089;BMP280;68489;50.286;9.452;2024-03-06T08:55:24;97614.06;;;7.40
79089;BMP280;68489;50.286;9.452;2024-03-06T08:57:49;97618.84;;;7.49
79089;BMP280;68489;50.286;9.452;2024-03-06T09:00:15;97624.81;;;7.53
79089;BMP280;68489;50.286;9.452;2024-03-06T09:02:42;97626.16;;;7.61
79089;BMP280;68489;50.286;9.452;2024-03-06T09:05:08;97626.69;;;7.52
79089;BMP280;68489;50.286;9.452;2024-03-06T09:07:44;97620.50;;;7.62
79089;BMP280;68489;50.286;9.452;2024-03-06T09:10:12;97627.63;;;7.65
79089;BMP280;68489;50.286;9.452;2024-03-06T09:12:38;97621.13;;;7.70
79089;BMP280;68489;50.286;9.452;2024-03-06T09:15:04;97628.31;;;7.70
79089;BMP280;68489;50.286;9.452;2024-03-06T09:17:32;97638.03;;;7.76
79089;BMP280;68489;50.286;9.452;2024-03-06T09:19:58;97633.13;;;7.75
79089;BMP280;68489;50.286;9.452;2024-03-06T09:22:23;97627.63;;;7.85
79089;BMP280;68489;50.286;9.452;2024-03-06T09:24:49;97636.28;;;7.89
79089;BMP280;68489;50.286;9.452;2024-03-06T09:27:15;97638.72;;;8.00
79089;BMP280;68489;50.286;9.452;2024-03-06T09:29:41;97636.81;;;7.81
79089;BMP280;68489;50.286;9.452;2024-03-06T09:32:07;97643.88;;;7.87
79089;BMP280;68489;50.286;9.452;2024-03-06T09:34:32;97638.78;;;7.97
79089;BMP280;68489;50.286;9.452;2024-03-06T09:36:57;97648.44;;;8.07
79089;BMP280;68489;50.286;9.452;2024-03-06T09:39:23;97646.41;;;8.14
79089;BMP280;68489;50.286;9.452;2024-03-06T09:41:53;97643.03;;;8.14
79089;BMP280;68489;50.286;9.452;2024-03-06T09:44:18;97640.28;;;8.18
79089;BMP280;68489;50.286;9.452;2024-03-06T09:46:47;97644.09;;;8.36
79089;BMP280;68489;50.286;9.452;2024-03-06T09:49:18;97656.44;;;8.43
79089;BMP280;68489;50.286;9.452;2024-03-06T09:51:46;97650.16;;;8.53
79089;BMP280;68489;50.286;9.452;2024-03-06T09:54:14;97657.69;;;8.55
79089;BMP280;68489;50.286;9.452;2024-03-06T09:56:41;97657.56;;;8.62
79089;BMP280;68489;50.286;9.452;2024-03-06T09:59:08;97664.47;;;8.76
79089;BMP280;68489;50.286;9.452;2024-03-06T10:01:36;97660.91;;;8.82
79089;BMP280;68489;50.286;9.452;2024-03-06T10:04:25;97659.38;;;8.65
79089;BMP280;68489;50.286;9.452;2024-03-06T10:06:53;97666.53;;;8.68
79089;BMP280;68489;50.286;9.452;2024-03-06T10:09:20;97663.03;;;8.71
79089;BMP280;68489;50.286;9.452;2024-03-06T10:11:46;97666.38;;;8.75
79089;BMP280;68489;50.286;9.452;2024-03-06T10:14:12;97672.25;;;8.83
79089;BMP280;68489;50.286;9.452;2024-03-06T10:16:51;97671.09;;;8.84
79089;BMP280;68489;50.286;9.452;2024-03-06T10:19:17;97663.53;;;8.82
79089;BMP280;68489;50.286;9.452;2024-03-06T10:21:44;97662.50;;;8.96
79089;BMP280;68489;50.286;9.452;2024-03-06T10:24:17;97664.34;;;9.16
79089;BMP280;68489;50.286;9.452;2024-03-06T10:26:43;97660.25;;;9.44
79089;BMP280;68489;50.286;9.452;2024-03-06T10:29:09;97663.22;;;9.62
79089;BMP280;68489;50.286;9.452;2024-03-06T10:31:34;97664.41;;;9.74
79089;BMP280;68489;50.286;9.452;2024-03-06T10:33:59;97667.06;;;10.03
79089;BMP280;68489;50.286;9.452;2024-03-06T10:36:31;97662.28;;;9.98
79089;BMP280;68489;50.286;9.452;2024-03-06T10:38:59;97673.41;;;9.93
79089;BMP280;68489;50.286;9.452;2024-03-06T10:41:28;97668.13;;;9.76
79089;BMP280;68489;50.286;9.452;2024-03-06T10:43:59;97667.22;;;9.83
79089;BMP280;68489;50.286;9.452;2024-03-06T10:46:27;97681.66;;;9.82
79089;BMP280;68489;50.286;9.452;2024-03-06T10:48:53;97672.97;;;9.81
79089;BMP280;68489;50.286;9.452;2024-03-06T10:51:20;97677.97;;;9.92
79089;BMP280;68489;50.286;9.452;2024-03-06T10:53:47;97683.59;;;9.81
79089;BMP280;68489;50.286;9.452;2024-03-06T10:56:14;97680.63;;;9.63
79089;BMP280;68489;50.286;9.452;2024-03-06T10:58:41;97685.16;;;9.79
79089;BMP280;68489;50.286;9.452;2024-03-06T11:01:07;97686.06;;;9.88
79089;BMP280;68489;50.286;9.452;2024-03-06T11:03:33;97692.72;;;9.80
79089;BMP280;68489;50.286;9.452;2024-03-06T11:06:01;97696.44;;;9.83
79089;BMP280;68489;50.286;9.452;2024-03-06T11:08:27;97696.13;;;9.81
79089;BMP280;68489;50.286;9.452;2024-03-06T11:10:54;97689.69;;;9.95
79089;BMP280;68489;50.286;9.452;2024-03-06T11:13:39;97691.13;;;10.12
79089;BMP280;68489;50.286;9.452;2024-03-06T11:16:07;97694.72;;;10.18
79089;BMP280;68489;50.286;9.452;2024-03-06T11:23:26;97698.91;;;10.32
79089;BMP280;68489;50.286;9.452;2024-03-06T11:36:23;97690.66;;;10.68
79089;BMP280;68489;50.286;9.452;2024-03-06T11:38:57;97688.97;;;10.61
79089;BMP280;68489;50.286;9.452;2024-03-06T11:41:28;97695.16;;;10.71
79089;BMP280;68489;50.286;9.452;2024-03-06T11:43:55;97685.78;;;10.67
79089;BMP280;68489;50.286;9.452;2024-03-06T11:46:44;97693.44;;;10.65
79089;BMP280;68489;50.286;9.452;2024-03-06T11:51:44;97687.31;;;10.13
79089;BMP280;68489;50.286;9.452;2024-03-06T11:54:10;97686.38;;;9.91
79089;BMP280;68489;50.286;9.452;2024-03-06T11:56:36;97684.16;;;10.02
79089;BMP280;68489;50.286;9.452;2024-03-06T11:59:03;97690.97;;;10.03
79089;BMP280;68489;50.286;9.452;2024-03-06T12:01:30;97694.66;;;9.93
79089;BMP280;68489;50.286;9.452;2024-03-06T12:03:55;97690.44;;;10.24
79089;BMP280;68489;50.286;9.452;2024-03-06T12:06:20;97695.19;;;10.29
79089;BMP280;68489;50.286;9.452;2024-03-06T12:08:47;97695.13;;;10.33
79089;BMP280;68489;50.286;9.452;2024-03-06T12:11:13;97699.19;;;10.50
79089;BMP280;68489;50.286;9.452;2024-03-06T12:13:38;97692.41;;;10.75
79089;BMP280;68489;50.286;9.452;2024-03-06T12:16:05;97693.44;;;10.77
79089;BMP280;68489;50.286;9.452;2024-03-06T12:18:31;97697.19;;;10.80
79089;BMP280;68489;50.286;9.452;2024-03-06T12:20:56;97688.56;;;10.63
79089;BMP280;68489;50.286;9.452;2024-03-06T12:23:25;97694.69;;;10.47
79089;BMP280;68489;50.286;9.452;2024-03-06T12:26:05;97694.50;;;10.42
79089;BMP280;68489;50.286;9.452;2024-03-06T12:28:31;97707.56;;;10.49
79089;BMP280;68489;50.286;9.452;2024-03-06T12:30:57;97703.53;;;10.57
79089;BMP280;68489;50.286;9.452;2024-03-06T12:33:26;97700.69;;;10.77
79089;BMP280;68489;50.286;9.452;2024-03-06T12:38:28;97704.50;;;10.88
79089;BMP280;68489;50.286;9.452;2024-03-06T12:40:54;97703.44;;;10.86
79089;BMP280;68489;50.286;9.452;2024-03-06T12:43:20;97708.66;;;10.90
79089;BMP280;68489;50.286;9.452;2024-03-06T12:45:45;97706.97;;;10.83
79089;BMP280;68489;50.286;9.452;2024-03-06T12:48:10;97700.34;;;10.62
79089;BMP280;68489;50.286;9.452;2024-03-06T12:50:37;97703.13;;;10.58
79089;BMP280;68489;50.286;9.452;2024-03-06T12:53:03;97705.78;;;10.71
79089;BMP280;68489;50.286;9.452;2024-03-06T12:55:30;97709.81;;;10.63
79089;BMP280;68489;50.286;9.452;2024-03-06T12:57:56;97705.78;;;10.58
79089;BMP280;68489;50.286;9.452;2024-03-06T13:00:22;97707.25;;;10.47
79089;BMP280;68489;50.286;9.452;2024-03-06T13:02:47;97697.44;;;10.31
79089;BMP280;68489;50.286;9.452;2024-03-06T13:05:13;97702.22;;;10.36
79089;BMP280;68489;50.286;9.452;2024-03-06T13:07:38;97708.44;;;10.58
79089;BMP280;68489;50.286;9.452;2024-03-06T13:10:05;97701.84;;;10.50
79089;BMP280;68489;50.286;9.452;2024-03-06T13:12:30;97700.03;;;10.47
79089;BMP280;68489;50.286;9.452;2024-03-06T13:14:55;97701.38;;;10.39
79089;BMP280;68489;50.286;9.452;2024-03-06T13:17:21;97708.94;;;10.41
79089;BMP280;68489;50.286;9.452;2024-03-06T13:19:47;97709.09;;;10.21
79089;BMP280;68489;50.286;9.452;2024-03-06T13:22:12;97699.09;;;10.12
79089;BMP280;68489;50.286;9.452;2024-03-06T13:24:37;97699.50;;;10.10
79089;BMP280;68489;50.286;9.452;2024-03-06T13:27:04;97707.88;;;10.09
79089;BMP280;68489;50.286;9.452;2024-03-06T13:29:29;97698.88;;;10.06
79089;BMP280;68489;50.286;9.452;2024-03-06T13:31:55;97701.75;;;10.12
79089;BMP280;68489;50.286;9.452;2024-03-06T13:34:20;97702.06;;;10.14
79089;BMP280;68489;50.286;9.452;2024-03-06T13:36:45;97701.75;;;10.12
79089;BMP280;68489;50.286;9.452;2024-03-06T13:39:11;97707.31;;;10.01
79089;BMP280;68489;50.286;9.452;2024-03-06T13:41:36;97697.22;;;9.96
79089;BMP280;68489;50.286;9.452;2024-03-06T13:44:01;97703.47;;;9.90
79089;BMP280;68489;50.286;9.452;2024-03-06T13:46:27;97710.50;;;9.96
79089;BMP280;68489;50.286;9.452;2024-03-06T13:48:52;97708.50;;;10.00
79089;BMP280;68489;50.286;9.452;2024-03-06T13:51:17;97714.69;;;10.10
79089;BMP280;68489;50.286;9.452;2024-03-06T13:53:43;97707.56;;;10.07
79089;BMP280;68489;50.286;9.452;2024-03-06T13:56:08;97708.84;;;10.02
79089;BMP280;68489;50.286;9.452;2024-03-06T13:58:33;97713.69;;;9.91
79089;BMP280;68489;50.286;9.452;2024-03-06T14:00:59;97715.91;;;9.93
79089;BMP280;68489;50.286;9.452;2024-03-06T14:03:25;97716.84;;;9.86
79089;BMP280;68489;50.286;9.452;2024-03-06T14:05:51;97722.16;;;9.86
79089;BMP280;68489;50.286;9.452;2024-03-06T14:08:16;97719.72;;;9.92
79089;BMP280;68489;50.286;9.452;2024-03-06T14:10:42;97716.75;;;9.90
79089;BMP280;68489;50.286;9.452;2024-03-06T14:13:07;97721.34;;;10.02
79089;BMP280;68489;50.286;9.452;2024-03-06T14:15:34;97723.69;;;10.00
79089;BMP280;68489;50.286;9.452;2024-03-06T14:17:59;97721.69;;;10.04
79089;BMP280;68489;50.286;9.452;2024-03-06T14:20:27;97724.13;;;9.98
79089;BMP280;68489;50.286;9.452;2024-03-06T14:22:53;97722.03;;;10.06
79089;BMP280;68489;50.286;9.452;2024-03-06T14:25:19;97723.13;;;10.21
79089;BMP280;68489;50.286;9.452;2024-03-06T14:27:44;97721.16;;;10.38
79089;BMP280;68489;50.286;9.452;2024-03-06T14:30:10;97721.16;;;10.51
79089;BMP280;68489;50.286;9.452;2024-03-06T14:32:37;97727.97;;;10.39